createdAt,value
2022-12-26T00:00:49.171Z,69.46
2022-12-26T00:03:56.306Z,69.66
2022-12-26T00:07:02.679Z,69.59
2022-12-26T00:10:08.130Z,69.86
2022-12-26T00:13:38.169Z,70.01
2022-12-26T00:16:43.783Z,69.92
2022-12-26T00:19:50.110Z,69.62
2022-12-26T00:22:56.386Z,69.23
2022-12-26T00:26:07.038Z,68.76
2022-12-26T00:29:13.223Z,68.86
2022-12-26T00:32:19.528Z,69.19
2022-12-26T00:35:24.011Z,68.66
2022-12-26T00:38:30.351Z,68.33
2022-12-26T00:41:34.847Z,67.76
2022-12-26T00:44:41.242Z,67.49
2022-12-26T00:47:45.710Z,66.81
2022-12-26T00:50:52.229Z,67.18
2022-12-26T00:53:58.526Z,68.02
2022-12-26T00:57:03.185Z,68.61
2022-12-26T01:00:11.711Z,69.18
2022-12-26T01:03:18.754Z,69.09
2022-12-26T01:06:25.063Z,69.34
2022-12-26T01:09:29.581Z,69.36
2022-12-26T01:12:36.172Z,69.51
2022-12-26T01:15:48.388Z,69.40
2022-12-26T01:18:54.636Z,69.38
2022-12-26T01:22:00.858Z,68.72
2022-12-26T01:25:09.045Z,67.97
2022-12-26T01:28:15.089Z,68.09
2022-12-26T01:31:22.063Z,68.25
2022-12-26T01:34:28.260Z,68.70
2022-12-26T01:37:34.517Z,70.01
2022-12-26T01:40:43.628Z,70.67
2022-12-26T01:43:54.415Z,70.21
2022-12-26T01:47:00.726Z,70.05
2022-12-26T01:50:06.312Z,70.57
2022-12-26T01:53:18.954Z,71.10
2022-12-26T01:56:31.013Z,70.61
2022-12-26T01:59:40.814Z,69.83
2022-12-26T02:03:06.233Z,68.97
2022-12-26T02:06:15.244Z,68.73
2022-12-26T02:09:22.208Z,68.90
2022-12-26T02:12:36.438Z,69.25
2022-12-26T02:15:45.052Z,69.64
2022-12-26T02:18:51.351Z,69.79
2022-12-26T02:22:09.370Z,69.26
2022-12-26T02:25:43.395Z,69.65
2022-12-26T02:29:25.296Z,69.56
2022-12-26T02:32:47.381Z,69.41
2022-12-26T02:36:12.684Z,69.33
2022-12-26T02:39:44.973Z,70.09
2022-12-26T02:42:59.753Z,69.71
2022-12-26T02:46:32.756Z,70.08
2022-12-26T02:50:10.791Z,69.94
2022-12-26T02:53:42.354Z,69.86
2022-12-26T02:57:11.555Z,70.38
2022-12-26T03:00:39.323Z,69.60
2022-12-26T03:04:06.790Z,69.21
2022-12-26T03:07:38.451Z,69.14
2022-12-26T03:11:02.541Z,69.71
2022-12-26T03:14:17.197Z,69.41
2022-12-26T03:17:29.956Z,69.74
2022-12-26T03:20:38.085Z,70.52
2022-12-26T03:23:47.775Z,69.74
2022-12-26T03:26:56.127Z,69.48
2022-12-26T03:30:28.183Z,70.97
2022-12-26T03:33:55.416Z,72.47
2022-12-26T03:37:22.513Z,74.89
2022-12-26T03:40:58.980Z,74.41
2022-12-26T03:44:38.448Z,76.94
2022-12-26T03:48:10.671Z,75.63
2022-12-26T03:51:42.735Z,75.32
2022-12-26T03:55:16.291Z,74.49
2022-12-26T03:58:45.973Z,73.10
2022-12-26T04:02:10.797Z,72.13
2022-12-26T04:05:36.129Z,71.64
2022-12-26T04:09:05.165Z,70.85
2022-12-26T04:12:35.500Z,70.30
2022-12-26T04:16:04.629Z,70.01
2022-12-26T04:19:28.097Z,69.49
2022-12-26T04:23:01.987Z,69.07
2022-12-26T04:26:31.347Z,68.63
2022-12-26T04:29:55.172Z,68.15
2022-12-26T04:33:25.504Z,67.76
2022-12-26T04:36:55.627Z,66.75
2022-12-26T04:40:20.838Z,66.76
2022-12-26T04:43:49.319Z,66.36
2022-12-26T04:46:59.170Z,66.11
2022-12-26T04:50:15.105Z,66.12
2022-12-26T04:53:22.079Z,65.90
2022-12-26T04:56:28.377Z,65.78
2022-12-26T04:59:33.042Z,65.88
2022-12-26T05:02:57.550Z,65.60
2022-12-26T05:06:22.134Z,65.42
2022-12-26T05:09:39.585Z,65.66
2022-12-26T05:12:45.927Z,64.96
2022-12-26T05:16:08.014Z,65.01
2022-12-26T05:19:47.844Z,64.31
2022-12-26T05:23:12.642Z,64.87
2022-12-26T05:26:39.988Z,64.67
2022-12-26T05:29:46.409Z,64.41
2022-12-26T05:33:07.983Z,63.81
2022-12-26T05:36:14.941Z,63.66
2022-12-26T05:39:21.525Z,63.63
2022-12-26T05:42:27.745Z,63.13
2022-12-26T05:45:32.256Z,63.10
2022-12-26T05:48:38.502Z,63.01
2022-12-26T05:51:43.040Z,62.93
2022-12-26T05:54:49.285Z,62.65
2022-12-26T05:57:53.874Z,63.05
2022-12-26T06:01:10.084Z,62.80
2022-12-26T06:04:16.488Z,62.31
2022-12-26T06:07:22.793Z,62.46
2022-12-26T06:10:29.827Z,62.49
2022-12-26T06:13:36.450Z,62.46
2022-12-26T06:16:42.780Z,62.29
2022-12-26T06:19:48.973Z,62.18
2022-12-26T06:22:53.584Z,61.85
2022-12-26T06:26:00.099Z,62.04
2022-12-26T06:29:06.363Z,62.08
2022-12-26T06:32:10.906Z,61.99
2022-12-26T06:35:17.154Z,61.79
2022-12-26T06:38:21.665Z,61.76
2022-12-26T06:41:28.337Z,61.71
2022-12-26T06:44:34.492Z,61.65
2022-12-26T06:47:39.010Z,61.52
2022-12-26T06:50:45.261Z,61.62
2022-12-26T06:53:50.120Z,61.42
2022-12-26T06:56:56.362Z,61.75
2022-12-26T07:00:00.822Z,61.72
2022-12-26T07:03:07.319Z,61.73
2022-12-26T07:06:25.786Z,61.64
2022-12-26T07:09:34.094Z,61.85
2022-12-26T07:12:40.631Z,61.76
2022-12-26T07:15:48.723Z,61.68
2022-12-26T07:18:57.277Z,61.74
2022-12-26T07:22:03.623Z,62.11
2022-12-26T07:25:11.396Z,62.03
2022-12-26T07:28:17.854Z,61.85
2022-12-26T07:31:24.708Z,61.74
2022-12-26T07:34:32.092Z,61.59
2022-12-26T07:37:38.697Z,61.76
2022-12-26T07:40:44.955Z,61.94
2022-12-26T07:43:49.592Z,61.81
2022-12-26T07:46:56.491Z,62.27
2022-12-26T07:50:02.744Z,62.34
2022-12-26T07:53:07.367Z,62.42
2022-12-26T07:56:13.738Z,62.46
2022-12-26T07:59:20.511Z,62.61
2022-12-26T08:02:27.011Z,62.71
2022-12-26T08:05:33.445Z,62.44
2022-12-26T08:08:41.926Z,62.24
2022-12-26T08:11:51.831Z,62.12
2022-12-26T08:14:56.346Z,62.37
2022-12-26T08:18:02.632Z,62.50
2022-12-26T08:21:08.878Z,61.89
2022-12-26T08:24:13.507Z,61.37
2022-12-26T08:27:19.754Z,61.50
2022-12-26T08:30:24.300Z,61.16
2022-12-26T08:33:30.562Z,61.28
2022-12-26T08:36:35.091Z,61.06
2022-12-26T08:39:41.317Z,61.29
2022-12-26T08:43:03.388Z,61.09
2022-12-26T08:46:13.823Z,61.08
2022-12-26T08:49:20.431Z,61.07
2022-12-26T08:52:26.759Z,61.20
2022-12-26T08:55:33.073Z,61.09
2022-12-26T08:58:39.420Z,61.16
2022-12-26T09:01:46.016Z,60.87
2022-12-26T09:04:52.368Z,60.70
2022-12-26T09:08:00.567Z,60.86
2022-12-26T09:11:09.419Z,60.63
2022-12-26T09:14:15.886Z,60.33
2022-12-26T09:17:22.165Z,60.21
2022-12-26T09:20:28.431Z,60.35
2022-12-26T09:23:33.251Z,60.35
2022-12-26T09:26:39.626Z,60.53
2022-12-26T09:29:45.901Z,60.31
2022-12-26T09:32:53.203Z,60.19
2022-12-26T09:36:03.854Z,60.10
2022-12-26T09:39:13.236Z,60.41
2022-12-26T09:42:33.778Z,59.92
2022-12-26T09:45:53.410Z,59.78
2022-12-26T09:49:04.134Z,60.03
2022-12-26T09:52:17.651Z,60.12
2022-12-26T09:55:38.926Z,59.72
2022-12-26T09:58:49.684Z,59.63
2022-12-26T10:01:56.585Z,58.38
2022-12-26T10:05:02.990Z,57.94
2022-12-26T10:08:25.758Z,59.16
2022-12-26T10:11:44.012Z,61.48
2022-12-26T10:14:56.697Z,62.15
2022-12-26T10:18:16.511Z,61.40
2022-12-26T10:21:36.901Z,61.04
2022-12-26T10:24:45.070Z,61.12
2022-12-26T10:27:53.105Z,60.79
2022-12-26T10:31:03.909Z,60.50
2022-12-26T10:34:18.643Z,59.84
2022-12-26T10:37:29.368Z,59.46
2022-12-26T10:40:41.938Z,58.41
2022-12-26T10:43:48.465Z,59.44
2022-12-26T10:47:21.165Z,61.78
2022-12-26T10:50:31.961Z,62.10
2022-12-26T10:53:41.726Z,61.90
2022-12-26T10:56:49.533Z,61.43
2022-12-26T10:59:57.324Z,61.03
2022-12-26T11:03:09.080Z,60.97
2022-12-26T11:06:15.336Z,60.48
2022-12-26T11:09:29.595Z,60.20
2022-12-26T11:12:43.015Z,59.77
2022-12-26T11:15:53.795Z,58.73
2022-12-26T11:19:00.468Z,58.87
2022-12-26T11:22:26.601Z,59.29
2022-12-26T11:25:35.267Z,61.57
2022-12-26T11:28:41.543Z,61.99
2022-12-26T11:32:02.875Z,61.21
2022-12-26T11:35:17.462Z,60.63
2022-12-26T11:38:44.584Z,60.58
2022-12-26T11:41:52.512Z,60.11
2022-12-26T11:45:03.908Z,58.49
2022-12-26T11:48:24.692Z,57.97
2022-12-26T11:51:43.775Z,61.10
2022-12-26T11:54:52.822Z,61.73
2022-12-26T11:58:06.590Z,61.19
2022-12-26T12:01:22.479Z,60.60
2022-12-26T12:04:28.670Z,60.22
2022-12-26T12:07:52.579Z,59.41
2022-12-26T12:11:07.367Z,57.86
2022-12-26T12:14:48.063Z,58.49
2022-12-26T12:18:04.207Z,59.17
2022-12-26T12:21:21.459Z,62.28
2022-12-26T12:24:45.360Z,62.34
2022-12-26T12:27:59.959Z,61.12
2022-12-26T12:31:15.796Z,60.58
2022-12-26T12:34:24.456Z,59.66
2022-12-26T12:37:41.121Z,58.38
2022-12-26T12:40:54.492Z,58.35
2022-12-26T12:44:11.796Z,59.23
2022-12-26T12:47:28.139Z,62.07
2022-12-26T12:50:45.671Z,62.72
2022-12-26T12:54:41.511Z,61.39
2022-12-26T12:57:51.612Z,60.20
2022-12-26T13:01:00.874Z,60.05
2022-12-26T13:04:12.790Z,59.76
2022-12-26T13:07:25.736Z,57.84
2022-12-26T13:10:36.084Z,58.27
2022-12-26T13:13:53.554Z,59.64
2022-12-26T13:17:04.676Z,60.21
2022-12-26T13:20:24.775Z,62.67
2022-12-26T13:23:52.039Z,62.97
2022-12-26T13:27:10.630Z,61.81
2022-12-26T13:30:19.007Z,61.48
2022-12-26T13:33:25.843Z,61.34
2022-12-26T13:36:40.787Z,60.69
2022-12-26T13:39:47.047Z,60.39
2022-12-26T13:43:11.167Z,60.45
2022-12-26T13:46:39.382Z,60.32
2022-12-26T13:49:46.075Z,59.85
2022-12-26T13:52:53.529Z,59.89
2022-12-26T13:56:02.384Z,60.27
2022-12-26T13:59:19.236Z,60.01
2022-12-26T14:03:16.893Z,59.75
2022-12-26T14:06:52.049Z,60.03
2022-12-26T14:10:05.962Z,60.02
2022-12-26T14:13:33.768Z,59.88
2022-12-26T14:16:48.194Z,60.01
2022-12-26T14:20:04.244Z,60.17
2022-12-26T14:23:25.513Z,60.23
2022-12-26T14:26:41.915Z,60.36
2022-12-26T14:29:55.707Z,60.26
2022-12-26T14:33:23.944Z,60.14
2022-12-26T14:36:41.347Z,60.20
2022-12-26T14:40:10.046Z,60.91
2022-12-26T14:43:41.453Z,60.87
2022-12-26T14:47:03.135Z,60.96
2022-12-26T14:50:44.564Z,61.11
2022-12-26T14:54:25.628Z,61.13
2022-12-26T14:57:49.530Z,61.06
2022-12-26T15:00:57.563Z,60.70
2022-12-26T15:04:08.540Z,60.63
2022-12-26T15:07:56.208Z,60.67
2022-12-26T15:11:45.376Z,60.74
2022-12-26T15:15:19.962Z,60.44
2022-12-26T15:19:05.812Z,60.17
2022-12-26T15:22:39.098Z,60.39
2022-12-26T15:26:14.237Z,60.57
2022-12-26T15:29:40.510Z,60.27
2022-12-26T15:32:59.027Z,60.33
2022-12-26T15:36:08.518Z,60.21
2022-12-26T15:39:25.773Z,60.33
2022-12-26T15:42:44.803Z,60.23
2022-12-26T15:45:56.888Z,60.31
2022-12-26T15:49:26.742Z,60.79
2022-12-26T15:52:44.838Z,60.86
2022-12-26T15:56:05.771Z,60.63
2022-12-26T15:59:53.884Z,60.61
2022-12-26T16:03:19.363Z,60.49
2022-12-26T16:06:41.418Z,60.44
2022-12-26T16:09:51.900Z,60.41
2022-12-26T16:13:07.521Z,60.71
2022-12-26T16:16:24.312Z,61.06
2022-12-26T16:19:30.819Z,61.38
2022-12-26T16:22:47.087Z,61.18
2022-12-26T16:25:55.647Z,61.50
2022-12-26T16:29:03.364Z,61.60
2022-12-26T16:32:15.577Z,61.64
2022-12-26T16:35:25.715Z,61.46
2022-12-26T16:38:33.175Z,61.12
2022-12-26T16:41:58.729Z,61.08
2022-12-26T16:45:05.668Z,61.14
2022-12-26T16:48:15.136Z,61.28
2022-12-26T16:51:40.373Z,61.30
2022-12-26T16:54:46.669Z,61.28
2022-12-26T16:57:52.084Z,61.11
2022-12-26T17:01:07.211Z,61.03
2022-12-26T17:04:23.038Z,61.24
2022-12-26T17:07:30.652Z,61.23
2022-12-26T17:10:38.953Z,61.28
2022-12-26T17:13:54.248Z,61.39
2022-12-26T17:17:05.038Z,61.45
2022-12-26T17:20:36.342Z,61.61
2022-12-26T17:23:43.210Z,61.48
2022-12-26T17:26:54.086Z,61.83
2022-12-26T17:30:02.213Z,62.34
2022-12-26T17:33:15.800Z,62.95
2022-12-26T17:37:00.507Z,62.92
2022-12-26T17:39:59.056Z,63.10
2022-12-26T17:43:22.214Z,63.87
2022-12-26T17:46:28.555Z,64.89
2022-12-26T17:49:34.747Z,65.87
2022-12-26T17:52:39.213Z,65.69
2022-12-26T18:08:29.617Z,68.44
2022-12-26T18:11:36.187Z,68.87
2022-12-26T18:14:42.280Z,68.73
2022-12-26T18:17:47.657Z,69.03
2022-12-26T18:20:53.747Z,69.27
2022-12-26T18:23:59.949Z,69.18
2022-12-26T18:27:04.529Z,69.40
2022-12-26T18:30:17.685Z,69.34
2022-12-26T18:33:24.261Z,69.32
2022-12-26T18:36:34.075Z,69.02
2022-12-26T18:39:40.259Z,68.70
2022-12-26T18:42:44.727Z,68.51
2022-12-26T18:45:51.785Z,68.81
2022-12-26T18:48:58.193Z,68.92
2022-12-26T18:52:04.666Z,68.87
2022-12-26T18:55:11.773Z,69.00
2022-12-26T18:58:17.782Z,68.79
2022-12-26T19:01:24.402Z,68.69
2022-12-26T19:04:30.879Z,68.31
2022-12-26T19:07:37.172Z,68.16
2022-12-26T19:10:47.489Z,68.48
2022-12-26T19:13:53.689Z,68.16
2022-12-26T19:16:58.137Z,67.79
2022-12-26T19:20:05.106Z,67.98
2022-12-26T19:23:11.252Z,68.25
2022-12-26T19:26:17.348Z,68.06
2022-12-26T19:29:23.937Z,68.05
2022-12-26T19:32:30.521Z,67.79
2022-12-26T19:35:37.096Z,67.71
2022-12-26T19:38:43.892Z,67.71
2022-12-26T19:41:51.068Z,67.57
2022-12-26T19:44:58.096Z,67.39
2022-12-26T19:48:05.277Z,66.89
2022-12-26T19:51:13.658Z,67.14
2022-12-26T19:54:20.744Z,67.01
2022-12-26T19:57:27.814Z,66.96
2022-12-26T20:00:34.542Z,67.16
2022-12-26T20:03:42.394Z,67.17
2022-12-26T20:06:49.458Z,66.90
2022-12-26T20:09:56.266Z,66.08
2022-12-26T20:13:02.789Z,65.48
2022-12-26T20:16:37.341Z,65.38
2022-12-26T20:19:39.891Z,64.94
2022-12-26T20:22:52.838Z,64.68
2022-12-26T20:26:01.396Z,64.28
2022-12-26T20:29:08.506Z,64.06
2022-12-26T20:32:14.980Z,63.87
2022-12-26T20:35:21.405Z,63.66
2022-12-26T20:38:27.640Z,63.48
2022-12-26T20:41:32.129Z,63.34
2022-12-26T20:44:41.547Z,63.42
2022-12-26T20:47:48.078Z,63.30
2022-12-26T20:51:00.835Z,63.46
2022-12-26T20:54:07.748Z,63.24
2022-12-26T20:57:14.026Z,63.19
2022-12-26T21:00:19.141Z,62.82
2022-12-26T21:03:25.718Z,62.76
2022-12-26T21:06:34.250Z,62.83
2022-12-26T21:09:46.006Z,62.96
2022-12-26T21:12:53.192Z,62.83
2022-12-26T21:16:09.748Z,62.90
2022-12-26T21:19:17.004Z,62.71
2022-12-26T21:22:26.747Z,62.26
2022-12-26T21:25:34.410Z,62.20
2022-12-26T21:28:41.056Z,62.17
2022-12-26T21:31:48.645Z,62.47
2022-12-26T21:34:54.857Z,62.40
2022-12-26T21:37:59.512Z,62.22
2022-12-26T21:41:07.223Z,62.32
2022-12-26T21:44:13.517Z,62.14
2022-12-26T21:47:19.836Z,62.26
2022-12-26T21:50:26.182Z,62.21
2022-12-26T21:53:32.509Z,62.18
2022-12-26T21:56:38.948Z,62.09
2022-12-26T21:59:57.800Z,62.04
2022-12-26T22:03:37.938Z,62.20
2022-12-26T22:06:45.096Z,62.40
2022-12-26T22:09:51.516Z,62.02
2022-12-26T22:13:00.867Z,62.13
2022-12-26T22:16:10.216Z,61.81
2022-12-26T22:19:16.439Z,61.89
2022-12-26T22:22:21.035Z,61.89
2022-12-26T22:25:27.414Z,61.97
2022-12-26T22:28:33.997Z,62.07
2022-12-26T22:31:40.408Z,62.08
2022-12-26T22:34:46.578Z,62.02
2022-12-26T22:37:51.059Z,62.23
2022-12-26T22:41:01.407Z,62.33
2022-12-26T22:44:08.459Z,62.08
2022-12-26T22:47:14.693Z,62.14
2022-12-26T22:50:19.067Z,62.04
2022-12-26T22:53:27.381Z,62.06
2022-12-26T22:56:34.407Z,61.51
2022-12-26T23:00:07.468Z,61.37
2022-12-26T23:03:07.308Z,61.29
2022-12-26T23:06:23.425Z,61.29
2022-12-26T23:09:30.915Z,61.26
2022-12-26T23:12:48.076Z,61.16
2022-12-26T23:16:00.810Z,61.23
2022-12-26T23:19:37.982Z,61.44
2022-12-26T23:22:44.701Z,61.44
2022-12-26T23:25:50.857Z,61.40
2022-12-26T23:29:12.840Z,61.22
2022-12-26T23:32:19.130Z,61.32
2022-12-26T23:35:26.932Z,61.15
2022-12-26T23:38:33.186Z,61.08
2022-12-26T23:41:37.727Z,61.27
2022-12-26T23:44:44.205Z,61.66
2022-12-26T23:47:50.388Z,61.78
2022-12-26T23:51:05.739Z,61.76
2022-12-26T23:54:12.097Z,61.92
2022-12-26T23:57:18.327Z,61.57
